SNCO2: N. Canadian River at Shawnee, OK

                                SHEF ID:       SNCO2     North Canadian River at Shawnee,
STATION TYPE:

STAGE RIV-FLOW BAT-LOAD
ft cfs volt
Ccp-Rev Ccp-Rev Ccp-Rev
(America/Chicago)
05/05 00:00 9.16 119 11.78
05/05 01:00 9.15 118 11.77
05/05 02:00 9.16 119 11.76
05/05 03:00 9.15 118 11.74
05/05 04:00 9.13 116 11.72
05/05 05:00 9.13 116 11.71
05/05 06:00 9.13 116 11.71
05/05 07:00 9.13 116 11.68
05/05 08:00 9.13 116 11.75
05/05 09:00 9.13 116 12.06
05/05 10:00 9.13 116 12.06
05/05 11:00 9.13 116 12.18
05/05 12:00 9.12 115 12.10
05/05 13:00 8.99 100 12.07
05/05 14:00 9.04 106 12.11
05/05 15:00 9.04 106 11.99
05/05 16:00 9.04 106 11.98
05/05 17:00 8.97 98 12.07
05/05 18:00 9.04 106 11.90
05/05 19:00 9.07 109 11.83
05/05 20:00 9.15 118 11.79
05/05 21:00 9.10 112 11.78
05/05 22:00 9.15 118 11.75
05/05 23:00 ---- ---- ----
Data processed at Wed 06May2026 04:01 GMT

NOTICE: If you are parsing this page

Please convert to using our Data API. Starting early 2026 we will be migrating to: https://water.usace.army.mil with modern pages rendered in JavaScript. When this migration completes you will no longer be able to scrape this page! CWMSDataAPI (CDA)

Timeseries IDs (TSIDs)

TSIDs used from left to right in the data table
SHAW.Stage.Inst.1Hour.0.Ccp-Rev
SHAW.Flow.Inst.1Hour.0.Ccp-Rev
SHAW.Volt-Battery Load.Inst.1Hour.0.Ccp-Rev

                            

All information presented herein is the property of the government of the United States of America and may be revised or deleted at any time without prior notice. Dissemination of this information without the expressed written consent of the Public Affairs Office, Tulsa District U.S. Army Corps of Engineers is strictly prohibited. These data are gathered electronically and, as presented, have NOT undergone any form of quality control. These data are NOT guaranteed to be valid or correct.